createdAt,value
2022-11-09T00:00:50.910Z,100.00
2022-11-09T00:03:18.996Z,100.00
2022-11-09T00:05:56.236Z,100.00
2022-11-09T00:08:25.555Z,100.00
2022-11-09T00:10:53.424Z,100.00
2022-11-09T00:13:21.446Z,100.00
2022-11-09T00:15:49.806Z,100.00
2022-11-09T00:18:17.658Z,100.00
2022-11-09T00:20:47.940Z,100.00
2022-11-09T00:23:17.212Z,100.00
2022-11-09T00:25:47.505Z,100.00
2022-11-09T00:28:15.489Z,100.00
2022-11-09T00:30:44.554Z,100.00
2022-11-09T00:33:12.345Z,100.00
2022-11-09T00:35:40.557Z,100.00
2022-11-09T00:38:08.390Z,100.00
2022-11-09T00:40:36.239Z,100.00
2022-11-09T00:43:05.304Z,100.00
2022-11-09T00:45:33.077Z,100.00
2022-11-09T00:48:00.749Z,100.00
2022-11-09T00:50:28.546Z,100.00
2022-11-09T00:52:56.263Z,100.00
2022-11-09T00:55:24.472Z,100.00
2022-11-09T00:57:52.820Z,100.00
2022-11-09T01:00:24.255Z,100.00
2022-11-09T01:02:52.177Z,100.00
2022-11-09T01:05:20.361Z,100.00
2022-11-09T01:07:48.069Z,100.00
2022-11-09T01:10:15.736Z,100.00
2022-11-09T01:12:43.482Z,100.00
2022-11-09T01:15:11.513Z,100.00
2022-11-09T01:17:40.673Z,100.00
2022-11-09T01:20:09.129Z,100.00
2022-11-09T01:22:36.949Z,100.00
2022-11-09T01:25:04.981Z,100.00
2022-11-09T01:27:33.879Z,100.00
2022-11-09T01:30:01.576Z,100.00
2022-11-09T01:32:32.900Z,100.00
2022-11-09T01:35:02.023Z,100.00
2022-11-09T01:37:29.769Z,100.00
2022-11-09T01:39:57.498Z,100.00
2022-11-09T01:42:26.569Z,100.00
2022-11-09T01:45:22.563Z,100.00
2022-11-09T01:47:56.350Z,100.00
2022-11-09T01:50:33.144Z,100.00
2022-11-09T01:53:03.493Z,100.00
2022-11-09T01:55:31.826Z,100.00
2022-11-09T01:58:02.950Z,100.00
2022-11-09T02:00:32.878Z,100.00
2022-11-09T02:03:06.213Z,100.00
2022-11-09T02:05:36.997Z,100.00
2022-11-09T02:08:07.800Z,100.00
2022-11-09T02:10:41.760Z,100.00
2022-11-09T02:13:11.881Z,100.00
2022-11-09T02:15:45.247Z,100.00
2022-11-09T02:18:13.729Z,100.00
2022-11-09T02:20:48.369Z,100.00
2022-11-09T02:23:16.498Z,100.00
2022-11-09T02:25:47.908Z,100.00
2022-11-09T02:28:17.421Z,100.00
2022-11-09T02:30:48.432Z,100.00
2022-11-09T02:33:16.326Z,100.00
2022-11-09T02:35:44.581Z,100.00
2022-11-09T02:38:15.316Z,100.00
2022-11-09T02:40:46.862Z,100.00
2022-11-09T02:43:16.117Z,100.00
2022-11-09T02:45:43.923Z,100.00
2022-11-09T02:48:11.628Z,100.00
2022-11-09T02:50:39.426Z,100.00
2022-11-09T02:53:07.223Z,100.00
2022-11-09T02:55:36.281Z,100.00
2022-11-09T02:58:04.014Z,100.00
2022-11-09T03:00:31.681Z,100.00
2022-11-09T03:02:59.524Z,100.00
2022-11-09T03:05:27.228Z,99.99
2022-11-09T03:07:55.025Z,100.00
2022-11-09T03:10:22.715Z,100.00
2022-11-09T03:12:51.786Z,100.00
2022-11-09T03:15:19.603Z,100.00
2022-11-09T03:17:47.789Z,100.00
2022-11-09T03:20:15.629Z,100.00
2022-11-09T03:22:43.313Z,100.00
2022-11-09T03:25:11.277Z,100.00
2022-11-09T03:27:38.989Z,100.00
2022-11-09T03:30:10.354Z,100.00
2022-11-09T03:32:38.111Z,100.00
2022-11-09T03:35:06.521Z,99.68
2022-11-09T03:37:34.344Z,100.00
2022-11-09T03:40:02.057Z,100.00
2022-11-09T03:42:29.724Z,100.00
2022-11-09T03:44:57.431Z,100.00
2022-11-09T03:47:26.600Z,97.26
2022-11-09T03:49:54.281Z,98.84
2022-11-09T03:52:22.687Z,97.26
2022-11-09T03:54:50.448Z,98.35
2022-11-09T03:57:18.148Z,99.25
2022-11-09T03:59:45.893Z,98.46
2022-11-09T04:02:13.627Z,98.12
2022-11-09T04:04:42.677Z,100.00
2022-11-09T04:07:11.547Z,99.01
2022-11-09T04:09:39.300Z,98.53
2022-11-09T04:12:07.057Z,99.56
2022-11-09T04:14:34.785Z,99.30
2022-11-09T04:17:02.477Z,97.47
2022-11-09T04:19:30.198Z,100.00
2022-11-09T04:21:59.257Z,100.00
2022-11-09T04:24:26.931Z,100.00
2022-11-09T04:26:54.666Z,100.00
2022-11-09T04:29:22.399Z,99.99
2022-11-09T04:31:50.649Z,99.65
2022-11-09T04:34:18.908Z,98.77
2022-11-09T04:36:46.678Z,98.91
2022-11-09T04:39:16.041Z,99.26
2022-11-09T04:41:43.734Z,98.68
2022-11-09T04:44:11.511Z,98.47
2022-11-09T04:46:39.253Z,100.00
2022-11-09T04:49:06.933Z,100.00
2022-11-09T04:51:34.727Z,99.87
2022-11-09T04:54:02.535Z,98.72
2022-11-09T04:56:31.623Z,100.00
2022-11-09T04:58:59.375Z,100.00
2022-11-09T05:01:27.085Z,100.00
2022-11-09T05:03:54.929Z,99.27
2022-11-09T05:06:34.696Z,99.54
2022-11-09T05:09:03.858Z,99.25
2022-11-09T05:11:34.134Z,99.47
2022-11-09T05:14:02.751Z,100.00
2022-11-09T05:16:30.856Z,100.00
2022-11-09T05:18:58.532Z,99.35
2022-11-09T05:21:26.266Z,100.00
2022-11-09T05:23:58.921Z,99.59
2022-11-09T05:26:33.076Z,100.00
2022-11-09T05:29:01.563Z,100.00
2022-11-09T05:31:29.786Z,100.00
2022-11-09T05:33:59.334Z,100.00
2022-11-09T05:36:28.289Z,100.00
2022-11-09T05:38:56.551Z,100.00
2022-11-09T05:41:24.557Z,100.00
2022-11-09T05:43:53.819Z,100.00
2022-11-09T05:46:21.506Z,100.00
2022-11-09T05:48:49.361Z,100.00
2022-11-09T05:51:17.251Z,100.00
2022-11-09T05:53:46.771Z,100.00
2022-11-09T05:56:15.787Z,100.00
2022-11-09T05:58:44.237Z,100.00
2022-11-09T06:01:15.417Z,100.00
2022-11-09T06:03:44.212Z,100.00
2022-11-09T06:06:14.577Z,100.00
2022-11-09T06:08:42.592Z,100.00
2022-11-09T06:11:11.945Z,100.00
2022-11-09T06:13:39.745Z,100.00
2022-11-09T06:16:08.326Z,100.00
2022-11-09T06:18:37.940Z,100.00
2022-11-09T06:21:07.036Z,99.62
2022-11-09T06:23:34.949Z,100.00
2022-11-09T06:26:06.319Z,100.00
2022-11-09T06:28:34.717Z,100.00
2022-11-09T06:31:03.768Z,100.00
2022-11-09T06:33:32.946Z,100.00
2022-11-09T06:36:02.363Z,98.37
2022-11-09T06:38:30.384Z,98.95
2022-11-09T06:41:00.470Z,98.73
2022-11-09T06:43:28.834Z,99.44
2022-11-09T06:45:56.772Z,97.85
2022-11-09T06:48:24.673Z,98.16
2022-11-09T06:50:52.374Z,96.38
2022-11-09T06:53:22.014Z,96.75
2022-11-09T06:55:51.000Z,96.37
2022-11-09T06:58:20.783Z,98.27
2022-11-09T07:00:48.620Z,95.72
2022-11-09T07:03:17.159Z,96.29
2022-11-09T07:05:45.433Z,94.89
2022-11-09T07:08:13.501Z,97.05
2022-11-09T07:10:43.012Z,96.43
2022-11-09T07:13:11.501Z,95.80
2022-11-09T07:15:39.883Z,96.90
2022-11-09T07:18:09.468Z,96.45
2022-11-09T07:20:38.952Z,96.49
2022-11-09T07:23:06.717Z,96.36
2022-11-09T07:25:34.991Z,98.06
2022-11-09T07:28:09.481Z,98.08
2022-11-09T07:30:37.977Z,96.87
2022-11-09T07:33:12.480Z,95.96
2022-11-09T07:35:40.248Z,96.54
2022-11-09T07:38:08.393Z,95.15
2022-11-09T07:40:36.641Z,96.72
2022-11-09T07:43:06.398Z,97.73
2022-11-09T07:45:36.728Z,95.94
2022-11-09T07:48:07.060Z,97.52
2022-11-09T07:50:35.867Z,97.24
2022-11-09T07:53:05.494Z,96.16
2022-11-09T07:55:33.277Z,96.75
2022-11-09T07:58:03.282Z,97.57
2022-11-09T08:00:33.385Z,94.32
2022-11-09T08:03:03.017Z,93.69
2022-11-09T08:05:31.088Z,96.61
2022-11-09T08:08:00.091Z,95.58
2022-11-09T08:10:29.250Z,96.82
2022-11-09T08:12:58.150Z,96.53
2022-11-09T08:15:26.813Z,99.05
2022-11-09T08:17:54.616Z,99.68
2022-11-09T08:20:23.704Z,98.31
2022-11-09T08:22:51.377Z,98.43
2022-11-09T08:25:19.160Z,100.00
2022-11-09T08:27:47.115Z,100.00
2022-11-09T08:30:17.378Z,100.00
2022-11-09T08:32:45.676Z,100.00
2022-11-09T08:35:17.646Z,100.00
2022-11-09T08:37:47.882Z,98.98
2022-11-09T08:40:18.282Z,99.04
2022-11-09T08:42:46.394Z,99.15
2022-11-09T08:45:14.933Z,99.44
2022-11-09T08:47:42.937Z,100.00
2022-11-09T08:50:12.071Z,99.77
2022-11-09T08:52:40.842Z,98.13
2022-11-09T08:55:10.676Z,98.93
2022-11-09T08:57:38.424Z,97.18
2022-11-09T09:00:07.729Z,97.82
2022-11-09T09:02:35.610Z,97.40
2022-11-09T09:05:03.291Z,97.30
2022-11-09T09:07:31.068Z,98.21
2022-11-09T09:09:58.783Z,96.08
2022-11-09T09:12:27.908Z,96.91
2022-11-09T09:14:55.620Z,95.55
2022-11-09T09:17:23.371Z,96.79
2022-11-09T09:19:51.068Z,95.43
2022-11-09T09:22:19.720Z,95.23
2022-11-09T09:24:47.541Z,95.59
2022-11-09T09:27:15.556Z,97.39
2022-11-09T09:29:44.716Z,96.48
2022-11-09T09:32:12.462Z,96.53
2022-11-09T09:34:40.144Z,94.42
2022-11-09T09:37:08.062Z,94.35
2022-11-09T09:39:35.810Z,94.17
2022-11-09T09:42:07.445Z,93.40
2022-11-09T09:44:41.736Z,93.35
2022-11-09T09:47:14.316Z,93.70
2022-11-09T09:49:45.873Z,94.30
2022-11-09T09:52:21.440Z,94.19
2022-11-09T09:54:55.736Z,94.48
2022-11-09T09:57:24.361Z,95.48
2022-11-09T09:59:53.998Z,97.05
2022-11-09T10:02:25.705Z,94.26
2022-11-09T10:04:56.228Z,94.55
2022-11-09T10:07:29.596Z,93.41
2022-11-09T10:10:17.521Z,91.98
2022-11-09T10:13:06.792Z,89.24
2022-11-09T10:15:42.012Z,90.17
2022-11-09T10:18:28.268Z,89.92
2022-11-09T10:21:15.937Z,90.31
2022-11-09T10:23:56.211Z,90.01
2022-11-09T10:26:28.571Z,89.32
2022-11-09T10:29:15.562Z,89.15
2022-11-09T10:31:46.924Z,92.18
2022-11-09T10:34:19.809Z,88.70
2022-11-09T10:36:55.749Z,88.28
2022-11-09T10:39:26.057Z,85.59
2022-11-09T10:41:53.842Z,86.42
2022-11-09T10:44:21.645Z,85.98
2022-11-09T10:47:08.012Z,86.35
2022-11-09T10:49:38.119Z,89.27
2022-11-09T10:52:06.914Z,85.51
2022-11-09T10:54:37.840Z,85.79
2022-11-09T10:57:15.748Z,86.19
2022-11-09T10:59:50.589Z,85.03
2022-11-09T11:02:41.710Z,82.01
2022-11-09T11:05:35.839Z,84.61
2022-11-09T11:08:23.480Z,81.76
2022-11-09T11:11:02.136Z,82.38
2022-11-09T11:13:34.649Z,81.81
2022-11-09T11:16:02.524Z,83.64
2022-11-09T11:18:32.844Z,81.63
2022-11-09T11:21:19.019Z,81.67
2022-11-09T11:24:09.804Z,80.83
2022-11-09T11:26:41.662Z,80.88
2022-11-09T11:29:25.635Z,81.00
2022-11-09T11:31:53.476Z,81.14
2022-11-09T11:34:45.676Z,79.79
2022-11-09T11:37:24.213Z,79.11
2022-11-09T11:40:01.059Z,78.17
2022-11-09T11:42:54.684Z,76.73
2022-11-09T11:45:41.642Z,76.50
2022-11-09T11:48:28.811Z,76.65
2022-11-09T11:51:04.538Z,76.62
2022-11-09T11:53:49.165Z,76.56
2022-11-09T11:56:24.142Z,76.79
2022-11-09T11:59:30.280Z,74.63
2022-11-09T12:02:22.489Z,75.40
2022-11-09T12:05:26.117Z,75.23
2022-11-09T12:08:02.440Z,76.30
2022-11-09T12:10:45.832Z,75.22
2022-11-09T12:13:36.112Z,75.16
2022-11-09T12:16:09.203Z,73.29
2022-11-09T12:18:48.744Z,72.07
2022-11-09T12:21:18.599Z,73.57
2022-11-09T12:24:11.441Z,73.90
2022-11-09T12:27:17.974Z,73.04
2022-11-09T12:29:49.562Z,67.87
2022-11-09T12:32:25.963Z,69.14
2022-11-09T12:34:59.290Z,70.67
2022-11-09T12:37:29.155Z,69.29
2022-11-09T12:40:05.310Z,68.03
2022-11-09T12:42:38.428Z,67.39
2022-11-09T12:45:19.662Z,68.45
2022-11-09T12:47:47.362Z,68.65
2022-11-09T12:50:18.151Z,68.11
2022-11-09T12:52:48.404Z,66.76
2022-11-09T12:55:19.531Z,66.79
2022-11-09T12:57:49.546Z,70.04
2022-11-09T13:00:49.834Z,71.41
2022-11-09T13:03:24.010Z,71.46
2022-11-09T13:06:16.465Z,72.64
2022-11-09T13:08:56.593Z,71.64
2022-11-09T13:11:35.769Z,70.90
2022-11-09T13:14:34.412Z,70.61
2022-11-09T13:17:23.187Z,72.09
2022-11-09T13:19:54.222Z,71.26
2022-11-09T13:23:00.768Z,71.14
2022-11-09T13:25:48.160Z,69.36
2022-11-09T13:28:44.060Z,70.14
2022-11-09T13:31:13.614Z,71.08
2022-11-09T13:33:42.237Z,70.81
2022-11-09T13:36:20.120Z,70.06
2022-11-09T13:39:08.949Z,69.78
2022-11-09T13:41:44.725Z,66.44
2022-11-09T13:44:34.206Z,66.39
2022-11-09T13:47:06.798Z,64.62
2022-11-09T13:49:55.354Z,62.64
2022-11-09T13:52:48.784Z,59.92
2022-11-09T13:55:27.084Z,61.36
2022-11-09T13:57:56.749Z,60.84
2022-11-09T14:00:26.734Z,61.60
2022-11-09T14:02:58.534Z,59.77
2022-11-09T14:05:29.039Z,61.79
2022-11-09T14:07:57.005Z,62.30
2022-11-09T14:10:37.423Z,62.44
2022-11-09T14:13:16.075Z,61.94
2022-11-09T14:15:50.704Z,63.58
2022-11-09T14:18:30.202Z,61.09
2022-11-09T14:21:16.271Z,62.35
2022-11-09T14:23:44.372Z,64.30
2022-11-09T14:26:24.184Z,65.04
2022-11-09T14:28:52.177Z,66.38
2022-11-09T14:31:28.317Z,68.11
2022-11-09T14:34:05.873Z,69.64
2022-11-09T14:36:36.262Z,70.14
2022-11-09T14:39:07.384Z,70.21
2022-11-09T14:41:36.230Z,70.25
2022-11-09T14:44:04.028Z,70.56
2022-11-09T14:46:32.789Z,71.24
2022-11-09T14:49:04.108Z,71.50
2022-11-09T14:51:34.865Z,71.02
2022-11-09T14:54:03.617Z,71.16
2022-11-09T14:56:33.845Z,72.36
2022-11-09T14:59:05.444Z,71.91
2022-11-09T15:01:33.155Z,71.25
2022-11-09T15:04:11.011Z,72.15
2022-11-09T15:06:47.324Z,73.16
2022-11-09T15:09:20.334Z,71.35
2022-11-09T15:11:48.658Z,71.11
2022-11-09T15:14:26.343Z,72.39
2022-11-09T15:17:00.172Z,71.85
2022-11-09T15:19:32.326Z,72.14
2022-11-09T15:22:01.724Z,72.27
2022-11-09T15:24:30.792Z,72.25
2022-11-09T15:26:58.775Z,73.12
2022-11-09T15:29:36.429Z,72.84
2022-11-09T15:32:14.954Z,74.07
2022-11-09T15:34:53.569Z,73.31
2022-11-09T15:37:25.058Z,74.29
2022-11-09T15:39:53.353Z,73.57
2022-11-09T15:42:21.958Z,74.02
2022-11-09T15:44:53.329Z,75.45
2022-11-09T15:47:25.099Z,75.48
2022-11-09T15:49:54.229Z,77.14
2022-11-09T15:52:21.933Z,76.63
2022-11-09T15:54:49.751Z,76.93
2022-11-09T15:57:19.457Z,77.62
2022-11-09T15:59:48.135Z,76.72
2022-11-09T16:02:18.864Z,76.95
2022-11-09T16:04:46.700Z,76.65
2022-11-09T16:07:17.175Z,77.17
2022-11-09T16:09:44.944Z,77.67
2022-11-09T16:12:12.652Z,78.19
2022-11-09T16:14:41.308Z,78.31
2022-11-09T16:17:09.072Z,79.02
2022-11-09T16:19:37.009Z,78.64
2022-11-09T16:22:05.176Z,79.40
2022-11-09T16:24:34.192Z,79.84
2022-11-09T16:27:03.258Z,80.36
2022-11-09T16:29:35.154Z,80.48
2022-11-09T16:32:02.848Z,81.55
2022-11-09T16:34:30.613Z,81.29
2022-11-09T16:36:59.405Z,83.45
2022-11-09T16:39:27.371Z,83.72
2022-11-09T16:41:56.628Z,83.85
2022-11-09T16:44:25.213Z,84.26
2022-11-09T16:46:53.133Z,84.49
2022-11-09T16:49:20.833Z,84.66
2022-11-09T16:51:48.596Z,84.98
2022-11-09T16:54:16.369Z,85.76
2022-11-09T16:56:44.298Z,85.63
2022-11-09T16:59:13.485Z,85.91
2022-11-09T17:01:41.386Z,85.62
2022-11-09T17:04:09.534Z,86.09
2022-11-09T17:06:37.369Z,86.22
2022-11-09T17:09:05.288Z,86.84
2022-11-09T17:11:33.500Z,86.50
2022-11-09T17:14:01.437Z,86.80
2022-11-09T17:16:30.593Z,89.38
2022-11-09T17:18:58.876Z,87.09
2022-11-09T17:21:28.351Z,86.57
2022-11-09T17:23:57.544Z,88.69
2022-11-09T17:26:26.282Z,88.54
2022-11-09T17:28:54.023Z,89.27
2022-11-09T17:31:24.083Z,87.58
2022-11-09T17:33:57.064Z,87.62
2022-11-09T17:36:49.200Z,86.57
2022-11-09T17:39:16.268Z,87.88
2022-11-09T17:41:44.157Z,90.01
2022-11-09T17:44:11.860Z,89.16
2022-11-09T17:46:39.592Z,88.13
2022-11-09T17:49:10.360Z,89.60
2022-11-09T17:51:38.411Z,88.79
2022-11-09T17:54:06.494Z,90.62
2022-11-09T17:56:34.886Z,90.27
2022-11-09T17:59:04.920Z,89.22
2022-11-09T18:01:36.565Z,91.26
2022-11-09T18:04:10.815Z,91.16
2022-11-09T18:06:39.396Z,93.28
2022-11-09T18:11:54.997Z,91.48
2022-11-09T18:14:22.732Z,89.93
2022-11-09T18:16:50.424Z,90.19
2022-11-09T18:19:19.541Z,89.75
2022-11-09T18:21:47.357Z,90.68
2022-11-09T18:24:15.150Z,91.17
2022-11-09T18:26:43.066Z,90.70
2022-11-09T18:29:10.773Z,90.27
2022-11-09T18:31:38.520Z,90.88
2022-11-09T18:34:06.189Z,90.89
2022-11-09T18:36:35.345Z,90.75
2022-11-09T18:39:03.378Z,91.38
2022-11-09T18:41:31.265Z,92.14
2022-11-09T18:43:59.210Z,93.10
2022-11-09T18:46:30.599Z,94.87
2022-11-09T18:48:58.305Z,95.92
2022-11-09T18:51:26.129Z,93.63
2022-11-09T18:53:55.175Z,94.02
2022-11-09T18:56:24.847Z,91.96
2022-11-09T18:58:54.357Z,93.03
2022-11-09T19:01:24.029Z,92.27
2022-11-09T19:03:57.799Z,90.52
2022-11-09T19:06:27.014Z,91.74
2022-11-09T19:09:13.627Z,93.25
2022-11-09T19:11:41.764Z,92.81
2022-11-09T19:14:10.036Z,92.25
2022-11-09T19:16:37.918Z,94.17
2022-11-09T19:19:05.703Z,92.98
2022-11-09T19:21:39.970Z,92.75
2022-11-09T19:24:12.904Z,93.92
2022-11-09T19:26:40.645Z,93.79
2022-11-09T19:29:09.506Z,94.48
2022-11-09T19:31:38.343Z,93.08
2022-11-09T19:34:06.138Z,93.81
2022-11-09T19:36:34.681Z,93.72
2022-11-09T19:39:02.752Z,94.10
2022-11-09T19:41:31.969Z,93.47
2022-11-09T19:44:00.344Z,95.64
2022-11-09T19:46:30.421Z,95.45
2022-11-09T19:48:58.581Z,95.76
2022-11-09T19:51:29.262Z,96.13
2022-11-09T19:53:58.469Z,93.17
2022-11-09T19:56:28.552Z,91.69
2022-11-09T19:58:58.998Z,93.47
2022-11-09T20:01:27.257Z,93.58
2022-11-09T20:03:56.993Z,93.39
2022-11-09T20:06:25.656Z,92.97
2022-11-09T20:08:53.809Z,94.09
2022-11-09T20:11:41.097Z,95.14
2022-11-09T20:14:11.567Z,94.69
2022-11-09T20:16:40.588Z,94.84
2022-11-09T20:19:11.161Z,93.92
2022-11-09T20:21:40.177Z,94.84
2022-11-09T20:24:11.017Z,94.61
2022-11-09T20:26:39.089Z,93.92
2022-11-09T20:29:06.833Z,94.56
2022-11-09T20:31:37.108Z,93.56
2022-11-09T20:34:04.923Z,93.74
2022-11-09T20:36:33.033Z,93.97
2022-11-09T20:39:00.713Z,95.38
2022-11-09T20:41:29.471Z,93.07
2022-11-09T20:43:57.186Z,93.61
2022-11-09T20:46:25.689Z,94.97
2022-11-09T20:48:55.813Z,94.87
2022-11-09T20:51:25.188Z,95.25
2022-11-09T20:53:53.177Z,95.01
2022-11-09T20:56:21.594Z,95.21
2022-11-09T20:58:49.626Z,93.25
2022-11-09T21:01:19.353Z,94.12
2022-11-09T21:03:47.905Z,92.93
2022-11-09T21:06:17.072Z,93.77
2022-11-09T21:08:46.133Z,93.41
2022-11-09T21:11:14.369Z,93.38
2022-11-09T21:13:43.913Z,92.30
2022-11-09T21:16:13.632Z,93.56
2022-11-09T21:18:41.824Z,93.16
2022-11-09T21:21:11.299Z,94.57
2022-11-09T21:23:58.759Z,92.99
2022-11-09T21:26:44.559Z,94.38
2022-11-09T21:29:32.818Z,95.86
2022-11-09T21:32:01.014Z,96.45
2022-11-09T21:34:34.030Z,95.57
2022-11-09T21:37:04.443Z,95.47
2022-11-09T21:39:33.733Z,95.17
2022-11-09T21:42:01.925Z,95.36
2022-11-09T21:44:31.046Z,94.47
2022-11-09T21:46:59.187Z,95.54
2022-11-09T21:49:26.901Z,95.48
2022-11-09T21:51:55.101Z,96.02
2022-11-09T21:54:23.744Z,96.58
2022-11-09T21:56:53.618Z,95.94
2022-11-09T21:59:21.443Z,97.20
2022-11-09T22:01:49.274Z,96.97
2022-11-09T22:04:17.223Z,95.27
2022-11-09T22:06:45.060Z,96.09
2022-11-09T22:09:16.601Z,95.49
2022-11-09T22:12:02.147Z,95.96
2022-11-09T22:14:48.831Z,96.82
2022-11-09T22:17:16.903Z,95.63
2022-11-09T22:20:01.955Z,96.51
2022-11-09T22:22:31.225Z,97.05
2022-11-09T22:24:58.986Z,96.07
2022-11-09T22:27:26.875Z,97.29
2022-11-09T22:29:56.000Z,97.95
2022-11-09T22:32:23.702Z,99.11
2022-11-09T22:34:51.565Z,97.81
2022-11-09T22:37:19.404Z,95.51
2022-11-09T22:39:47.772Z,97.42
2022-11-09T22:42:15.769Z,97.68
2022-11-09T22:44:43.567Z,97.65
2022-11-09T22:47:13.317Z,96.46
2022-11-09T22:49:40.996Z,99.03
2022-11-09T22:52:09.441Z,98.61
2022-11-09T22:54:37.134Z,96.61
2022-11-09T22:57:05.160Z,99.58
2022-11-09T22:59:32.880Z,97.77
2022-11-09T23:02:00.642Z,99.99
2022-11-09T23:04:29.826Z,99.94
2022-11-09T23:06:57.659Z,98.70
2022-11-09T23:09:25.389Z,97.15
2022-11-09T23:11:53.083Z,98.35
2022-11-09T23:14:40.929Z,97.09
2022-11-09T23:17:28.620Z,100.00
2022-11-09T23:19:56.753Z,98.69
2022-11-09T23:22:24.460Z,96.65
2022-11-09T23:25:09.459Z,98.00
2022-11-09T23:27:37.216Z,97.51
2022-11-09T23:30:05.905Z,98.00
2022-11-09T23:32:33.676Z,98.48
2022-11-09T23:35:02.696Z,98.70
2022-11-09T23:37:30.636Z,99.59
2022-11-09T23:39:58.332Z,98.47
2022-11-09T23:42:26.140Z,98.49
2022-11-09T23:44:53.824Z,99.87
2022-11-09T23:47:21.566Z,99.24
2022-11-09T23:49:49.349Z,97.08
2022-11-09T23:52:18.561Z,96.24
2022-11-09T23:54:46.590Z,97.91
2022-11-09T23:57:14.564Z,98.66
2022-11-09T23:59:42.299Z,96.71
